createdAt,value
2023-05-01T00:00:08.125Z,75.62
2023-05-01T00:02:35.184Z,74.89
2023-05-01T00:05:02.282Z,75.49
2023-05-01T00:07:30.529Z,80.90
2023-05-01T00:09:57.877Z,81.53
2023-05-01T00:12:25.530Z,83.00
2023-05-01T00:14:53.511Z,84.69
2023-05-01T00:17:20.320Z,85.63
2023-05-01T00:19:47.143Z,84.66
2023-05-01T00:22:13.872Z,86.69
2023-05-01T00:24:42.000Z,87.31
2023-05-01T00:27:08.744Z,86.03
2023-05-01T00:29:35.499Z,87.16
2023-05-01T00:32:02.342Z,87.85
2023-05-01T00:34:29.095Z,88.03
2023-05-01T00:36:55.818Z,87.52
2023-05-01T00:39:22.593Z,88.55
2023-05-01T00:41:50.781Z,83.82
2023-05-01T00:44:17.698Z,84.37
2023-05-01T00:46:44.494Z,80.91
2023-05-01T00:49:11.259Z,80.27
2023-05-01T00:51:38.115Z,81.73
2023-05-01T00:54:05.786Z,79.51
2023-05-01T00:56:32.840Z,80.90
2023-05-01T00:59:01.272Z,82.04
2023-05-01T01:01:28.482Z,84.09
2023-05-01T01:03:55.358Z,79.41
2023-05-01T01:06:33.326Z,81.38
2023-05-01T01:09:09.048Z,82.38
2023-05-01T01:11:42.997Z,83.75
2023-05-01T01:14:17.366Z,85.94
2023-05-01T01:16:48.963Z,84.68
2023-05-01T01:19:52.169Z,83.73
2023-05-01T01:22:23.040Z,84.97
2023-05-01T01:25:13.960Z,83.62
2023-05-01T01:28:04.896Z,85.25
2023-05-01T01:31:05.027Z,84.75
2023-05-01T01:33:58.151Z,86.12
2023-05-01T01:36:34.536Z,84.29
2023-05-01T01:39:08.836Z,84.58
2023-05-01T01:41:38.999Z,84.21
2023-05-01T01:44:12.187Z,83.25
2023-05-01T01:46:41.578Z,82.74
2023-05-01T01:49:15.743Z,83.58
2023-05-01T01:51:43.727Z,84.13
2023-05-01T01:54:13.571Z,84.58
2023-05-01T01:56:42.404Z,82.58
2023-05-01T01:59:13.098Z,82.49
2023-05-01T02:01:41.664Z,83.93
2023-05-01T02:04:12.295Z,84.12
2023-05-01T02:06:40.750Z,84.63
2023-05-01T02:09:09.688Z,85.79
2023-05-01T02:11:37.900Z,82.66
2023-05-01T02:14:07.253Z,83.06
2023-05-01T02:16:35.289Z,82.78
2023-05-01T02:19:04.022Z,81.40
2023-05-01T02:21:33.965Z,82.40
2023-05-01T02:24:01.625Z,82.70
2023-05-01T02:26:29.757Z,83.56
2023-05-01T02:28:56.502Z,83.99
2023-05-01T02:31:23.401Z,85.57
2023-05-01T02:33:50.314Z,86.27
2023-05-01T02:36:17.130Z,85.95
2023-05-01T02:38:45.311Z,87.61
2023-05-01T02:41:15.135Z,86.92
2023-05-01T02:43:43.560Z,85.64
2023-05-01T02:46:12.656Z,86.19
2023-05-01T02:48:42.124Z,86.06
2023-05-01T02:51:09.829Z,81.66
2023-05-01T02:53:36.954Z,80.59
2023-05-01T02:56:05.702Z,79.79
2023-05-01T02:58:33.977Z,79.92
2023-05-01T03:01:00.773Z,80.66
2023-05-01T03:03:27.574Z,78.62
2023-05-01T03:05:54.454Z,79.75
2023-05-01T03:08:21.268Z,79.94
2023-05-01T03:10:47.986Z,77.96
2023-05-01T03:13:16.105Z,78.01
2023-05-01T03:15:42.828Z,80.23
2023-05-01T03:18:09.809Z,78.46
2023-05-01T03:20:36.692Z,77.54
2023-05-01T03:23:03.465Z,79.78
2023-05-01T03:25:30.296Z,79.45
2023-05-01T03:27:57.144Z,78.38
2023-05-01T03:30:25.369Z,79.75
2023-05-01T03:32:52.425Z,79.12
2023-05-01T03:35:19.459Z,78.50
2023-05-01T03:37:46.409Z,80.80
2023-05-01T03:40:13.540Z,81.04
2023-05-01T03:42:40.302Z,79.01
2023-05-01T03:45:08.216Z,80.09
2023-05-01T03:47:36.572Z,77.34
2023-05-01T03:50:03.689Z,76.93
2023-05-01T03:52:30.468Z,75.46
2023-05-01T03:54:57.455Z,75.45
2023-05-01T03:57:24.268Z,75.79
2023-05-01T03:59:51.081Z,76.46
2023-05-01T04:02:17.990Z,76.19
2023-05-01T04:04:46.227Z,77.23
2023-05-01T04:07:13.605Z,77.23
2023-05-01T04:09:40.374Z,74.95
2023-05-01T04:12:07.187Z,75.40
2023-05-01T04:14:33.910Z,74.79
2023-05-01T04:17:00.759Z,75.92
2023-05-01T04:19:27.548Z,75.80
2023-05-01T04:21:55.704Z,76.84
2023-05-01T04:24:22.507Z,79.24
2023-05-01T04:26:49.344Z,76.61
2023-05-01T04:29:16.163Z,78.17
2023-05-01T04:31:43.047Z,75.03
2023-05-01T04:34:09.883Z,75.26
2023-05-01T04:36:36.739Z,76.22
2023-05-01T04:39:04.866Z,75.33
2023-05-01T04:41:31.605Z,75.60
2023-05-01T04:43:58.412Z,77.00
2023-05-01T04:46:25.306Z,77.10
2023-05-01T04:48:52.141Z,76.01
2023-05-01T04:51:18.921Z,77.41
2023-05-01T04:53:45.819Z,76.25
2023-05-01T04:56:13.947Z,77.41
2023-05-01T04:58:40.708Z,74.18
2023-05-01T05:01:07.589Z,72.82
2023-05-01T05:03:34.433Z,74.09
2023-05-01T05:06:01.308Z,74.25
2023-05-01T05:08:28.149Z,74.82
2023-05-01T05:10:58.428Z,77.19
2023-05-01T05:13:27.161Z,72.24
2023-05-01T05:15:54.143Z,70.90
2023-05-01T05:18:21.151Z,72.03
2023-05-01T05:20:48.225Z,73.42
2023-05-01T05:23:15.030Z,71.95
2023-05-01T05:25:41.847Z,71.25
2023-05-01T05:28:08.707Z,72.57
2023-05-01T05:30:36.964Z,71.32
2023-05-01T05:33:04.131Z,70.56
2023-05-01T05:35:31.022Z,71.03
2023-05-01T05:37:57.851Z,71.84
2023-05-01T05:40:24.699Z,71.43
2023-05-01T05:42:51.494Z,71.77
2023-05-01T05:45:18.290Z,70.29
2023-05-01T05:47:46.431Z,71.74
2023-05-01T05:50:13.486Z,72.32
2023-05-01T05:52:40.340Z,71.14
2023-05-01T05:55:07.974Z,71.77
2023-05-01T05:57:36.043Z,70.53
2023-05-01T06:00:04.662Z,66.88
2023-05-01T06:02:31.994Z,68.86
2023-05-01T06:05:00.387Z,66.88
2023-05-01T06:07:29.697Z,67.92
2023-05-01T06:10:00.106Z,65.31
2023-05-01T06:12:27.732Z,64.75
2023-05-01T06:14:55.372Z,62.30
2023-05-01T06:17:22.916Z,63.52
2023-05-01T06:19:49.795Z,64.03
2023-05-01T06:22:17.932Z,63.33
2023-05-01T06:24:44.698Z,66.66
2023-05-01T06:27:11.520Z,64.69
2023-05-01T06:29:38.297Z,66.67
2023-05-01T06:32:05.617Z,67.35
2023-05-01T06:34:32.424Z,68.83
2023-05-01T06:36:59.227Z,68.17
2023-05-01T06:39:27.490Z,68.21
2023-05-01T06:41:54.389Z,67.88
2023-05-01T06:44:21.156Z,67.11
2023-05-01T06:46:47.935Z,67.24
2023-05-01T06:49:14.746Z,67.08
2023-05-01T06:51:41.497Z,66.51
2023-05-01T06:54:08.939Z,66.26
2023-05-01T06:56:37.148Z,66.52
2023-05-01T06:59:04.019Z,69.09
2023-05-01T07:01:32.665Z,69.77
2023-05-01T07:04:00.740Z,69.40
2023-05-01T07:06:27.751Z,69.04
2023-05-01T07:08:54.634Z,67.92
2023-05-01T07:11:21.736Z,67.05
2023-05-01T07:13:50.025Z,65.53
2023-05-01T07:16:16.746Z,63.18
2023-05-01T07:18:43.691Z,61.83
2023-05-01T07:21:10.531Z,60.25
2023-05-01T07:23:37.477Z,57.70
2023-05-01T07:26:04.958Z,58.66
2023-05-01T07:28:31.833Z,57.36
2023-05-01T07:31:00.180Z,53.52
2023-05-01T07:33:27.325Z,52.38
2023-05-01T07:35:54.120Z,51.96
2023-05-01T07:38:21.047Z,50.61
2023-05-01T07:40:47.839Z,50.48
2023-05-01T07:43:14.593Z,51.54
2023-05-01T07:45:41.603Z,51.28
2023-05-01T07:48:09.828Z,50.13
2023-05-01T07:50:36.607Z,50.49
2023-05-01T07:53:03.462Z,50.09
2023-05-01T07:55:30.265Z,50.66
2023-05-01T07:57:57.054Z,50.35
2023-05-01T08:00:24.158Z,51.90
2023-05-01T08:02:51.983Z,53.18
2023-05-01T08:05:20.356Z,51.81
2023-05-01T08:07:47.116Z,52.90
2023-05-01T08:10:14.054Z,53.13
2023-05-01T08:12:40.850Z,53.63
2023-05-01T08:15:08.534Z,52.17
2023-05-01T08:17:35.858Z,52.22
2023-05-01T08:20:03.680Z,52.08
2023-05-01T08:22:31.801Z,53.18
2023-05-01T08:24:58.539Z,53.79
2023-05-01T08:27:26.309Z,53.97
2023-05-01T08:29:54.925Z,55.24
2023-05-01T08:32:21.901Z,55.68
2023-05-01T08:34:48.780Z,55.63
2023-05-01T08:37:15.669Z,54.12
2023-05-01T08:39:43.786Z,55.24
2023-05-01T08:42:10.911Z,56.58
2023-05-01T08:44:38.738Z,55.04
2023-05-01T08:47:11.477Z,54.58
2023-05-01T08:49:40.916Z,54.50
2023-05-01T08:52:08.805Z,55.63
2023-05-01T08:54:39.277Z,56.49
2023-05-01T08:57:10.553Z,55.94
2023-05-01T08:59:38.548Z,56.43
2023-05-01T09:02:07.111Z,55.39
2023-05-01T09:04:35.506Z,54.50
2023-05-01T09:07:04.098Z,52.37
2023-05-01T09:09:31.929Z,53.57
2023-05-01T09:12:01.498Z,51.51
2023-05-01T09:14:31.688Z,51.28
2023-05-01T09:16:58.767Z,50.19
2023-05-01T09:19:26.949Z,49.98
2023-05-01T09:21:54.091Z,49.54
2023-05-01T09:24:22.834Z,50.87
2023-05-01T09:26:50.262Z,49.70
2023-05-01T09:29:37.895Z,49.83
2023-05-01T09:32:13.809Z,50.08
2023-05-01T09:34:40.589Z,49.35
2023-05-01T09:37:07.427Z,49.25
2023-05-01T09:39:34.385Z,49.54
2023-05-01T09:42:01.278Z,48.72
2023-05-01T09:44:28.045Z,48.22
2023-05-01T09:46:56.323Z,48.13
2023-05-01T09:49:45.043Z,48.81
2023-05-01T09:52:12.243Z,48.87
2023-05-01T09:54:39.088Z,49.98
2023-05-01T09:57:05.906Z,49.24
2023-05-01T09:59:32.633Z,49.21
2023-05-01T10:02:01.094Z,47.83
2023-05-01T10:04:31.345Z,48.22
2023-05-01T10:06:58.252Z,47.38
2023-05-01T10:09:29.157Z,48.68
2023-05-01T10:11:56.765Z,49.98
2023-05-01T10:14:23.881Z,48.75
2023-05-01T10:16:53.665Z,46.45
2023-05-01T10:19:22.018Z,45.83
2023-05-01T10:21:49.638Z,47.78
2023-05-01T10:24:17.361Z,47.69
2023-05-01T10:26:48.229Z,50.15
2023-05-01T10:29:16.151Z,49.90
2023-05-01T10:31:50.632Z,49.45
2023-05-01T10:34:22.742Z,50.18
2023-05-01T10:37:04.459Z,49.35
2023-05-01T10:39:37.385Z,48.67
2023-05-01T10:42:10.079Z,50.22
2023-05-01T10:44:40.865Z,49.44
2023-05-01T10:47:47.971Z,47.88
2023-05-01T10:50:19.169Z,48.19
2023-05-01T10:53:17.900Z,46.60
2023-05-01T10:55:46.688Z,46.71
2023-05-01T10:58:34.565Z,48.36
2023-05-01T11:01:31.369Z,46.71
2023-05-01T11:03:59.320Z,45.53
2023-05-01T11:06:27.115Z,46.16
2023-05-01T11:08:56.717Z,46.17
2023-05-01T11:11:46.067Z,46.81
2023-05-01T11:14:13.258Z,45.23
2023-05-01T11:16:47.039Z,45.71
2023-05-01T11:19:45.950Z,45.96
2023-05-01T11:22:13.020Z,46.13
2023-05-01T11:24:42.296Z,45.88
2023-05-01T11:27:13.022Z,45.53
2023-05-01T11:29:41.173Z,43.81
2023-05-01T11:32:08.907Z,42.56
2023-05-01T11:34:38.905Z,43.26
2023-05-01T11:37:05.923Z,44.11
2023-05-01T11:39:33.589Z,40.68
2023-05-01T11:42:09.891Z,43.65
2023-05-01T11:44:37.696Z,42.16
2023-05-01T11:47:05.213Z,41.87
2023-05-01T11:49:32.636Z,41.19
2023-05-01T11:51:59.913Z,39.08
2023-05-01T11:54:26.947Z,39.21
2023-05-01T11:57:00.561Z,40.83
2023-05-01T11:59:29.423Z,38.87
2023-05-01T12:01:56.367Z,40.15
2023-05-01T12:04:24.756Z,38.98
2023-05-01T12:06:51.738Z,39.00
2023-05-01T12:09:20.370Z,40.92
2023-05-01T12:11:52.324Z,40.57
2023-05-01T12:14:20.656Z,40.83
2023-05-01T12:16:49.111Z,40.55
2023-05-01T12:19:16.617Z,41.49
2023-05-01T12:21:43.549Z,41.41
2023-05-01T12:24:11.209Z,40.88
2023-05-01T12:26:37.970Z,41.47
2023-05-01T12:29:06.563Z,41.95
2023-05-01T12:31:33.793Z,42.13
2023-05-01T12:34:04.874Z,43.31
2023-05-01T12:36:33.429Z,42.42
2023-05-01T12:39:02.572Z,43.04
2023-05-01T12:41:34.145Z,42.48
2023-05-01T12:44:01.489Z,44.23
2023-05-01T12:46:29.946Z,43.56
2023-05-01T12:48:57.181Z,43.23
2023-05-01T12:51:26.872Z,42.61
2023-05-01T12:53:54.512Z,43.53
2023-05-01T12:56:22.679Z,42.96
2023-05-01T12:58:50.554Z,44.39
2023-05-01T13:01:24.628Z,42.31
2023-05-01T13:03:51.669Z,40.88
2023-05-01T13:06:18.785Z,42.21
2023-05-01T13:08:47.289Z,42.25
2023-05-01T13:11:15.661Z,41.78
2023-05-01T13:13:43.899Z,42.53
2023-05-01T13:16:12.875Z,41.01
2023-05-01T13:18:43.757Z,41.59
2023-05-01T13:21:12.377Z,40.10
2023-05-01T13:23:39.397Z,40.94
2023-05-01T13:26:09.088Z,40.82
2023-05-01T13:28:36.598Z,40.96
2023-05-01T13:31:10.431Z,41.84
2023-05-01T13:33:39.228Z,41.74
2023-05-01T13:36:17.769Z,40.03
2023-05-01T13:38:54.067Z,42.30
2023-05-01T13:41:24.129Z,41.25
2023-05-01T13:43:52.532Z,41.32
2023-05-01T13:46:20.705Z,41.55
2023-05-01T13:48:48.988Z,42.31
2023-05-01T13:51:21.378Z,41.53
2023-05-01T13:53:48.121Z,40.16
2023-05-01T13:56:14.924Z,42.54
2023-05-01T13:58:43.163Z,42.19
2023-05-01T14:01:16.143Z,42.98
2023-05-01T14:03:43.641Z,43.08
2023-05-01T14:06:13.018Z,42.78
2023-05-01T14:08:40.205Z,43.32
2023-05-01T14:11:07.962Z,44.45
2023-05-01T14:13:36.019Z,43.77
2023-05-01T14:16:07.401Z,44.01
2023-05-01T14:18:34.194Z,44.55
2023-05-01T14:21:00.961Z,45.43
2023-05-01T14:23:28.905Z,44.83
2023-05-01T14:25:55.696Z,45.02
2023-05-01T14:28:22.489Z,44.57
2023-05-01T14:30:49.241Z,45.38
2023-05-01T14:33:17.639Z,45.75
2023-05-01T14:35:48.359Z,45.95
2023-05-01T14:38:16.536Z,46.62
2023-05-01T14:40:44.404Z,46.08
2023-05-01T14:43:14.197Z,46.35
2023-05-01T14:45:41.778Z,47.59
2023-05-01T14:48:10.388Z,46.26
2023-05-01T14:50:38.791Z,47.26
2023-05-01T14:53:05.598Z,47.03
2023-05-01T14:55:32.471Z,47.51
2023-05-01T14:57:59.277Z,47.59
2023-05-01T15:00:26.019Z,47.36
2023-05-01T15:02:52.908Z,48.03
2023-05-01T15:05:19.695Z,49.26
2023-05-01T15:07:47.822Z,49.15
2023-05-01T15:10:14.581Z,49.79
2023-05-01T15:12:41.398Z,49.09
2023-05-01T15:15:09.467Z,49.25
2023-05-01T15:17:36.316Z,49.08
2023-05-01T15:20:03.415Z,50.66
2023-05-01T15:22:30.268Z,50.04
2023-05-01T15:24:58.991Z,50.82
2023-05-01T15:27:26.041Z,51.59
2023-05-01T15:29:52.787Z,52.04
2023-05-01T15:32:19.669Z,52.82
2023-05-01T15:34:46.550Z,53.25
2023-05-01T15:37:13.388Z,54.12
2023-05-01T15:39:40.242Z,54.17
2023-05-01T15:42:08.467Z,54.77
2023-05-01T15:44:35.217Z,54.76
2023-05-01T15:47:02.034Z,55.04
2023-05-01T15:49:28.901Z,56.42
2023-05-01T15:51:55.664Z,56.39
2023-05-01T15:54:22.428Z,56.11
2023-05-01T15:56:49.291Z,56.69
2023-05-01T15:59:17.538Z,56.54
2023-05-01T16:01:44.641Z,57.01
2023-05-01T16:04:11.624Z,56.94
2023-05-01T16:06:40.275Z,57.71
2023-05-01T16:09:07.162Z,57.36
2023-05-01T16:11:33.951Z,57.58
2023-05-01T16:14:00.924Z,59.19
2023-05-01T16:16:29.341Z,58.29
2023-05-01T16:18:57.546Z,60.27
2023-05-01T16:21:25.313Z,59.76
2023-05-01T16:23:54.654Z,59.44
2023-05-01T16:26:23.791Z,59.44
2023-05-01T16:28:51.676Z,58.85
2023-05-01T16:31:27.194Z,59.88
2023-05-01T16:33:56.859Z,58.70
2023-05-01T16:36:23.592Z,59.50
2023-05-01T16:38:50.395Z,59.55
2023-05-01T16:41:17.835Z,61.13
2023-05-01T16:43:45.099Z,61.89
2023-05-01T16:46:15.018Z,62.64
2023-05-01T16:48:42.007Z,62.50
2023-05-01T16:51:10.672Z,62.51
2023-05-01T16:53:37.593Z,63.02
2023-05-01T16:56:04.939Z,63.36
2023-05-01T16:58:31.686Z,63.46
2023-05-01T17:00:58.475Z,64.56
2023-05-01T17:03:25.207Z,63.87
2023-05-01T17:05:51.945Z,62.92
2023-05-01T17:08:20.065Z,63.68
2023-05-01T17:10:46.841Z,64.80
2023-05-01T17:13:13.619Z,65.18
2023-05-01T17:15:40.568Z,62.87
2023-05-01T17:18:08.083Z,64.76
2023-05-01T17:20:35.249Z,67.33
2023-05-01T17:23:02.077Z,68.55
2023-05-01T17:25:30.237Z,69.28
2023-05-01T17:27:57.053Z,72.19
2023-05-01T17:30:23.906Z,72.75
2023-05-01T17:32:50.948Z,73.29
2023-05-01T17:35:17.866Z,76.40
2023-05-01T17:37:44.605Z,72.69
2023-05-01T17:40:11.923Z,73.71
2023-05-01T17:42:40.187Z,77.37
2023-05-01T17:45:08.076Z,77.83
2023-05-01T17:47:34.923Z,71.78
2023-05-01T17:50:02.775Z,74.10
2023-05-01T17:52:29.950Z,74.61
2023-05-01T17:54:56.699Z,74.56
2023-05-01T17:57:23.419Z,74.62
2023-05-01T17:59:51.596Z,74.73
2023-05-01T18:02:18.440Z,70.31
2023-05-01T18:04:45.291Z,70.38
2023-05-01T18:07:12.135Z,74.76
2023-05-01T18:09:38.881Z,75.54
2023-05-01T18:12:05.861Z,76.43
2023-05-01T18:14:32.667Z,78.39
2023-05-01T18:17:01.222Z,74.02
2023-05-01T18:19:28.080Z,75.71
2023-05-01T18:21:54.788Z,78.49
2023-05-01T18:24:21.586Z,79.52
2023-05-01T18:26:48.429Z,80.38
2023-05-01T18:29:15.199Z,80.75
2023-05-01T18:31:42.040Z,82.25
2023-05-01T18:34:10.252Z,81.14
2023-05-01T18:36:37.048Z,83.86
2023-05-01T18:39:03.943Z,85.30
2023-05-01T18:41:30.718Z,83.64
2023-05-01T18:43:58.145Z,84.33
2023-05-01T18:46:25.052Z,84.17
2023-05-01T18:48:52.971Z,86.50
2023-05-01T18:51:22.861Z,86.23
2023-05-01T18:53:53.757Z,86.26
2023-05-01T18:56:20.674Z,86.47
2023-05-01T18:58:47.499Z,86.46
2023-05-01T19:01:14.257Z,90.33
2023-05-01T19:03:41.110Z,90.62
2023-05-01T19:06:07.968Z,91.69
2023-05-01T19:08:36.302Z,96.16
2023-05-01T19:11:03.801Z,91.27
2023-05-01T19:13:30.627Z,96.24
2023-05-01T19:15:57.486Z,97.21
2023-05-01T19:18:24.500Z,100.00
2023-05-01T19:20:51.758Z,100.00
2023-05-01T19:23:18.592Z,100.00
2023-05-01T19:25:46.719Z,100.00
2023-05-01T19:28:13.434Z,100.00
2023-05-01T19:30:40.265Z,100.00
2023-05-01T19:33:07.720Z,100.00
2023-05-01T19:35:34.969Z,100.00
2023-05-01T19:38:02.283Z,100.00
2023-05-01T19:40:29.542Z,100.00
2023-05-01T19:42:57.684Z,100.00
2023-05-01T19:45:24.579Z,100.00
2023-05-01T19:47:51.388Z,100.00
2023-05-01T19:50:18.273Z,100.00
2023-05-01T19:52:45.129Z,100.00
2023-05-01T19:55:11.915Z,100.00
2023-05-01T19:57:38.744Z,100.00
2023-05-01T20:00:08.823Z,100.00
2023-05-01T20:02:35.775Z,100.00
2023-05-01T20:05:02.623Z,100.00
2023-05-01T20:07:29.688Z,100.00
2023-05-01T20:09:56.848Z,100.00
2023-05-01T20:12:24.074Z,100.00
2023-05-01T20:14:51.040Z,100.00
2023-05-01T20:17:19.454Z,100.00
2023-05-01T20:19:46.225Z,100.00
2023-05-01T20:22:12.957Z,100.00
2023-05-01T20:24:39.732Z,100.00
2023-05-01T20:27:06.558Z,100.00
2023-05-01T20:29:33.307Z,100.00
2023-05-01T20:32:00.155Z,100.00
2023-05-01T20:34:28.307Z,100.00
2023-05-01T20:36:55.140Z,100.00
2023-05-01T20:39:21.912Z,100.00
2023-05-01T20:41:48.655Z,100.00
2023-05-01T20:44:15.580Z,100.00
2023-05-01T20:46:42.747Z,100.00
2023-05-01T20:49:12.081Z,100.00
2023-05-01T20:51:41.264Z,100.00
2023-05-01T20:54:08.062Z,100.00
2023-05-01T20:56:34.821Z,100.00
2023-05-01T20:59:03.164Z,100.00
2023-05-01T21:01:30.835Z,100.00
2023-05-01T21:03:58.278Z,100.00
2023-05-01T21:06:25.238Z,100.00
2023-05-01T21:08:53.415Z,100.00
2023-05-01T21:11:20.175Z,100.00
2023-05-01T21:13:46.893Z,100.00
2023-05-01T21:16:14.496Z,100.00
2023-05-01T21:18:41.525Z,100.00
2023-05-01T21:21:08.744Z,100.00
2023-05-01T21:23:35.894Z,100.00
2023-05-01T21:26:04.207Z,100.00
2023-05-01T21:28:31.050Z,100.00
2023-05-01T21:30:57.844Z,100.00
2023-05-01T21:33:24.680Z,100.00
2023-05-01T21:35:51.491Z,100.00
2023-05-01T21:38:18.246Z,100.00
2023-05-01T21:40:45.011Z,100.00
2023-05-01T21:43:13.197Z,100.00
2023-05-01T21:45:43.680Z,100.00
2023-05-01T21:48:14.253Z,100.00
2023-05-01T21:50:41.190Z,100.00
2023-05-01T21:53:07.949Z,100.00
2023-05-01T21:55:34.811Z,100.00
2023-05-01T21:58:02.096Z,100.00
2023-05-01T22:00:30.580Z,100.00
2023-05-01T22:02:57.734Z,100.00
2023-05-01T22:05:24.704Z,100.00
2023-05-01T22:07:51.750Z,100.00
2023-05-01T22:10:19.197Z,100.00
2023-05-01T22:12:46.664Z,100.00
2023-05-01T22:15:14.270Z,100.00
2023-05-01T22:17:42.816Z,100.00
2023-05-01T22:20:10.307Z,100.00
2023-05-01T22:22:38.954Z,100.00
2023-05-01T22:25:06.935Z,100.00
2023-05-01T22:27:33.985Z,100.00
2023-05-01T22:30:01.082Z,100.00
2023-05-01T22:32:28.248Z,100.00
2023-05-01T22:34:56.629Z,100.00
2023-05-01T22:37:23.429Z,100.00
2023-05-01T22:39:50.267Z,100.00
2023-05-01T22:42:17.019Z,100.00
2023-05-01T22:44:43.754Z,100.00
2023-05-01T22:47:10.564Z,100.00
2023-05-01T22:49:37.305Z,100.00
2023-05-01T22:52:05.577Z,100.00
2023-05-01T22:54:32.328Z,100.00
2023-05-01T22:56:59.064Z,100.00
2023-05-01T22:59:25.930Z,100.00
2023-05-01T23:01:52.884Z,100.00
2023-05-01T23:04:19.981Z,100.00
2023-05-01T23:06:46.904Z,100.00
2023-05-01T23:09:15.104Z,100.00
2023-05-01T23:11:41.928Z,100.00
2023-05-01T23:14:09.335Z,100.00
2023-05-01T23:16:40.798Z,100.00
2023-05-01T23:19:18.655Z,100.00
2023-05-01T23:21:45.407Z,100.00
2023-05-01T23:24:13.181Z,100.00
2023-05-01T23:26:41.436Z,100.00
2023-05-01T23:29:08.239Z,100.00
2023-05-01T23:31:36.023Z,100.00
2023-05-01T23:34:02.983Z,100.00
2023-05-01T23:36:29.749Z,100.00
2023-05-01T23:38:56.484Z,100.00
2023-05-01T23:41:23.256Z,100.00
2023-05-01T23:43:51.642Z,100.00
2023-05-01T23:46:18.560Z,100.00
2023-05-01T23:48:45.386Z,100.00
2023-05-01T23:51:12.269Z,100.00
2023-05-01T23:53:39.072Z,100.00
2023-05-01T23:56:06.382Z,100.00
2023-05-01T23:58:33.624Z,100.00
